Time;durP1;ratioP1;P1;durP2;ratioP2;P2;SDS_P1;SDS_P2;PMS_P1;PMS_P2;Temp;Humidity;BMP_temperature;BMP_pressure;BME280_temperature;BME280_humidity;BME280_pressure;Samples;Min_cycle;Max_cycle;Signal;HPM_P1;HPM_P2
2021/03/29 00:01:46;;;;;;;12.43;7.10;;;;;;;4.89;86.62;97067.03;5012322;28;20195;-62
2021/03/29 00:04:13;;;;;;;11.87;6.93;;;;;;;4.75;85.82;97070.78;5012112;28;20230;-62
2021/03/29 00:06:41;;;;;;;12.97;7.33;;;;;;;4.78;85.89;97074.75;5012353;28;20200;-63
2021/03/29 00:09:09;;;;;;;11.77;6.57;;;;;;;4.57;86.56;97073.41;5012364;28;20190;-62
2021/03/29 00:11:38;;;;;;;8.47;6.40;;;;;;;4.22;87.99;97075.78;5011965;28;20665;-61
2021/03/29 00:14:06;;;;;;;9.67;6.57;;;;;;;3.91;88.65;97071.50;5012004;28;20199;-62
2021/03/29 00:16:35;;;;;;;12.37;7.23;;;;;;;3.97;89.19;97064.72;5012054;28;20210;-61
2021/03/29 00:19:06;;;;;;;10.53;7.43;;;;;;;4.06;88.80;97063.47;5012170;28;20194;-62
2021/03/29 00:21:34;;;;;;;10.40;6.73;;;;;;;4.12;88.67;97057.47;5012217;28;20199;-62
2021/03/29 00:24:01;;;;;;;13.77;7.60;;;;;;;4.16;89.35;97061.19;5011964;28;20237;-62
2021/03/29 00:26:29;;;;;;;10.23;7.20;;;;;;;4.21;89.89;97058.75;5011845;28;20237;-61
2021/03/29 00:28:55;;;;;;;17.30;9.70;;;;;;;4.16;89.62;97063.75;5011704;28;20552;-61
2021/03/29 00:31:22;;;;;;;21.43;12.37;;;;;;;4.18;90.12;97057.41;5012011;28;20198;-62
2021/03/29 00:33:52;;;;;;;16.97;10.43;;;;;;;4.15;90.16;97052.66;5011577;28;20557;-59
2021/03/29 00:36:23;;;;;;;18.17;9.63;;;;;;;4.19;89.86;97051.25;5012023;28;20202;-59
2021/03/29 00:38:51;;;;;;;11.13;7.23;;;;;;;4.19;89.72;97056.38;5011699;28;20681;-62
2021/03/29 00:41:18;;;;;;;11.70;7.37;;;;;;;4.27;89.10;97058.69;5011226;28;20234;-62
2021/03/29 00:43:47;;;;;;;29.20;14.77;;;;;;;4.15;89.95;97052.66;5011497;28;20205;-61
2021/03/29 00:46:15;;;;;;;31.37;16.03;;;;;;;4.14;90.91;97060.59;5011753;28;20190;-61
2021/03/29 00:48:43;;;;;;;12.00;7.17;;;;;;;4.10;89.56;97057.66;5011432;28;20278;-61
2021/03/29 00:51:13;;;;;;;12.30;8.07;;;;;;;4.07;89.79;97054.75;5011575;28;20207;-61
2021/03/29 00:53:44;;;;;;;14.50;8.10;;;;;;;4.09;90.70;97058.66;5011356;28;20293;-61
2021/03/29 00:56:13;;;;;;;18.03;9.80;;;;;;;4.00;91.45;97054.00;5011333;28;20272;-62
2021/03/29 00:58:40;;;;;;;16.10;9.87;;;;;;;4.01;91.79;97056.38;5010186;28;20285;-61
2021/03/29 01:01:10;;;;;;;14.47;8.50;;;;;;;4.09;91.79;97063.00;5011123;28;20647;-61
2021/03/29 01:03:40;;;;;;;16.00;10.20;;;;;;;4.09;90.72;97063.81;5010937;28;20198;-59
2021/03/29 01:06:11;;;;;;;14.77;10.03;;;;;;;4.25;91.05;97073.53;5011117;28;20202;-60
2021/03/29 01:08:40;;;;;;;17.63;10.83;;;;;;;4.24;91.07;97066.81;5011060;28;20198;-62
2021/03/29 01:11:11;;;;;;;11.47;7.30;;;;;;;4.26;89.65;97072.56;5011253;28;20286;-61
2021/03/29 01:13:45;;;;;;;12.17;6.47;;;;;;;4.23;88.50;97070.38;5011065;28;20662;-61
2021/03/29 01:16:14;;;;;;;14.03;7.33;;;;;;;4.36;89.20;97077.19;5011318;28;20206;-62
2021/03/29 01:18:44;;;;;;;9.17;6.13;;;;;;;4.50;88.57;97070.09;5011163;28;20207;-60
2021/03/29 01:21:24;;;;;;;9.20;6.00;;;;;;;4.46;88.98;97071.53;5010801;28;20209;-61
2021/03/29 01:23:52;;;;;;;11.27;6.73;;;;;;;4.50;89.27;97064.97;5010839;28;20285;-61
2021/03/29 01:26:33;;;;;;;16.27;8.93;;;;;;;4.43;88.87;97061.69;5011088;28;20226;-60
2021/03/29 01:29:01;;;;;;;14.60;8.83;;;;;;;4.31;89.04;97066.75;5010990;28;20318;-60
2021/03/29 01:31:30;;;;;;;11.93;8.23;;;;;;;4.23;88.00;97062.66;5010645;28;20694;-62
2021/03/29 01:33:58;;;;;;;15.07;9.67;;;;;;;4.23;88.06;97067.81;5011002;28;20209;-60
2021/03/29 01:36:27;;;;;;;13.03;8.40;;;;;;;4.13;88.58;97059.84;5010899;28;20261;-59
2021/03/29 01:38:56;;;;;;;12.50;9.07;;;;;;;3.98;88.67;97056.81;5010626;28;20281;-60
2021/03/29 01:41:23;;;;;;;16.97;10.20;;;;;;;3.98;89.13;97067.09;5010231;28;20229;-60
2021/03/29 01:43:51;;;;;;;30.27;15.10;;;;;;;3.67;90.94;97067.19;5010341;28;20209;-60
2021/03/29 01:46:18;;;;;;;23.77;13.93;;;;;;;3.66;90.72;97063.81;5010664;28;20669;-60
2021/03/29 01:48:46;;;;;;;28.50;14.43;;;;;;;3.73;90.57;97071.47;5010612;28;20252;-60
2021/03/29 01:51:16;;;;;;;32.13;16.43;;;;;;;3.84;90.78;97071.56;5010802;28;20672;-61
2021/03/29 01:53:44;;;;;;;27.77;14.87;;;;;;;3.87;89.64;97057.50;5010388;28;20209;-60
2021/03/29 01:56:11;;;;;;;34.20;16.77;;;;;;;3.98;90.31;97061.97;5010355;28;20263;-61
2021/03/29 01:58:38;;;;;;;31.10;16.67;;;;;;;4.00;90.10;97061.72;5010480;28;20202;-61
2021/03/29 02:01:08;;;;;;;31.80;17.57;;;;;;;3.82;90.66;97067.63;5010143;28;20252;-61
2021/03/29 02:03:35;;;;;;;24.47;13.60;;;;;;;3.70;91.06;97070.09;5009944;28;20202;-60
2021/03/29 02:06:04;;;;;;;18.87;11.27;;;;;;;3.81;91.85;97066.06;5009904;28;20353;-61
2021/03/29 02:08:34;;;;;;;16.67;9.27;;;;;;;3.95;90.21;97056.44;5010661;28;20859;-61
2021/03/29 02:11:02;;;;;;;11.47;7.53;;;;;;;4.07;90.44;97054.75;5014352;28;20220;-62
2021/03/29 02:13:33;;;;;;;9.87;6.67;;;;;;;4.16;90.54;97050.88;5014135;28;20205;-62
2021/03/29 02:16:02;;;;;;;15.80;8.60;;;;;;;4.17;90.13;97045.53;5014465;28;20737;-60
2021/03/29 02:18:32;;;;;;;12.57;7.40;;;;;;;4.24;90.77;97051.38;5014140;28;20228;-61
2021/03/29 02:21:02;;;;;;;13.53;8.13;;;;;;;4.29;90.61;97048.16;5014190;28;20658;-61
2021/03/29 02:23:30;;;;;;;14.13;8.40;;;;;;;4.30;90.90;97049.75;5013931;28;20281;-60
2021/03/29 02:26:00;;;;;;;16.67;12.50;;;;;;;4.31;90.60;97052.09;5013909;28;20237;-60
2021/03/29 02:28:27;;;;;;;20.07;14.77;;;;;;;4.41;90.10;97055.97;5014249;28;20297;-61
2021/03/29 02:30:55;;;;;;;19.27;11.87;;;;;;;4.41;89.42;97061.09;5013871;28;20554;-60
2021/03/29 02:33:23;;;;;;;20.13;11.73;;;;;;;4.38;90.08;97053.81;5013959;28;20228;-59
2021/03/29 02:35:53;;;;;;;21.83;11.23;;;;;;;4.45;90.13;97060.47;5013876;28;20191;-61
2021/03/29 02:38:21;;;;;;;29.80;14.70;;;;;;;4.46;88.89;97053.53;5013917;28;20190;-61
2021/03/29 02:40:51;;;;;;;15.90;8.57;;;;;;;4.43;87.54;97059.13;5013778;28;20194;-61
2021/03/29 02:43:19;;;;;;;11.90;7.67;;;;;;;4.37;88.55;97057.41;5014030;28;20202;-62
2021/03/29 02:45:51;;;;;;;13.10;7.80;;;;;;;4.34;87.93;97054.25;5013608;28;20650;-62
2021/03/29 02:48:21;;;;;;;13.70;7.50;;;;;;;4.34;88.48;97056.81;5013815;28;20280;-62
2021/03/29 02:50:53;;;;;;;14.53;8.73;;;;;;;4.33;89.03;97062.97;5013867;28;20202;-62
2021/03/29 02:53:27;;;;;;;12.60;8.17;;;;;;;4.31;88.88;97062.41;5013881;28;20292;-62
2021/03/29 02:55:54;;;;;;;11.37;7.57;;;;;;;4.30;88.13;97065.19;5013807;28;20302;-62
2021/03/29 02:58:24;;;;;;;13.23;8.17;;;;;;;4.27;88.81;97058.69;5013646;28;20199;-62
2021/03/29 03:00:52;;;;;;;12.00;7.83;;;;;;;4.33;86.61;97057.06;5013395;28;20613;-61
2021/03/29 03:03:20;;;;;;;16.53;8.07;;;;;;;4.22;86.74;97063.69;5013449;28;20679;-62
2021/03/29 03:05:47;;;;;;;12.07;7.07;;;;;;;4.25;86.07;97057.31;5013181;28;20287;-62
2021/03/29 03:08:15;;;;;;;11.30;7.50;;;;;;;4.32;85.71;97063.97;5013448;28;20197;-62
2021/03/29 03:10:43;;;;;;;14.40;6.67;;;;;;;4.25;84.53;97060.69;5013152;28;20198;-62
2021/03/29 03:13:11;;;;;;;8.60;6.20;;;;;;;4.31;84.54;97067.53;5013360;28;20194;-62
2021/03/29 03:15:39;;;;;;;11.67;6.50;;;;;;;4.47;82.73;97073.13;5013088;28;20673;-62
2021/03/29 03:18:07;;;;;;;14.30;5.97;;;;;;;4.29;83.95;97069.53;5013375;28;20207;-62
2021/03/29 03:20:36;;;;;;;12.23;7.40;;;;;;;4.18;84.44;97070.28;5011980;28;20203;-62
2021/03/29 03:23:13;;;;;;;8.60;5.90;;;;;;;4.16;84.37;97074.03;5013061;28;20277;-62
2021/03/29 03:25:45;;;;;;;11.47;6.17;;;;;;;4.22;83.73;97062.91;5012811;28;20222;-61
2021/03/29 03:28:15;;;;;;;10.60;6.10;;;;;;;4.20;84.82;97070.81;5012853;28;20222;-61
2021/03/29 03:30:44;;;;;;;12.13;6.10;;;;;;;4.23;83.81;97067.81;5012845;28;20197;-61
2021/03/29 03:33:12;;;;;;;11.53;5.70;;;;;;;4.30;83.98;97071.13;5012836;28;20285;-61
2021/03/29 03:35:42;;;;;;;7.83;5.60;;;;;;;4.25;83.63;97073.53;5012802;28;20190;-61
2021/03/29 03:38:15;;;;;;;9.67;6.27;;;;;;;4.25;83.53;97078.69;5012826;28;20238;-61
2021/03/29 03:40:45;;;;;;;10.73;6.33;;;;;;;4.37;83.35;97080.56;5012708;28;20925;-61
2021/03/29 03:43:15;;;;;;;14.47;6.23;;;;;;;4.34;84.03;97074.81;4993047;28;20760;-62
2021/03/29 03:45:45;;;;;;;11.10;5.87;;;;;;;4.40;83.63;97075.75;4992836;28;20227;-61
2021/03/29 03:48:14;;;;;;;9.67;6.20;;;;;;;4.27;85.13;97071.56;4992927;28;20257;-61
2021/03/29 03:50:41;;;;;;;9.80;6.30;;;;;;;4.22;84.79;97079.13;4993041;28;20671;-61
2021/03/29 03:53:09;;;;;;;9.50;5.87;;;;;;;4.23;84.92;97070.38;4992885;28;20247;-62
2021/03/29 03:55:40;;;;;;;7.63;5.50;;;;;;;4.25;85.45;97073.53;4993143;28;20202;-62
2021/03/29 03:58:08;;;;;;;11.53;5.67;;;;;;;4.28;85.48;97067.97;4992913;28;20207;-62
2021/03/29 04:00:35;;;;;;;9.90;6.33;;;;;;;4.01;86.64;97064.09;4992704;28;20222;-62
2021/03/29 04:03:02;;;;;;;11.40;5.90;;;;;;;3.95;88.34;97056.44;4992697;28;20635;-61
2021/03/29 04:05:29;;;;;;;10.20;6.03;;;;;;;3.98;87.64;97051.66;4992485;28;20249;-62
2021/03/29 04:07:58;;;;;;;13.10;6.20;;;;;;;4.10;87.07;97049.16;4992590;28;20258;-62
2021/03/29 04:10:36;;;;;;;14.10;7.30;;;;;;;4.18;86.29;97054.84;4993115;28;20307;-62
2021/03/29 04:13:07;;;;;;;11.83;7.47;;;;;;;4.22;85.93;97047.47;4992980;28;20290;-62
2021/03/29 04:15:35;;;;;;;15.27;7.50;;;;;;;4.29;86.53;97048.94;4992645;28;20203;-62
2021/03/29 04:18:05;;;;;;;17.50;10.07;;;;;;;4.20;88.15;97050.25;4992503;28;20659;-62
2021/03/29 04:20:33;;;;;;;35.00;17.27;;;;;;;4.24;87.59;97058.31;4992406;28;20265;-62
2021/03/29 04:22:59;;;;;;;68.60;29.40;;;;;;;4.46;84.93;97048.38;4992613;28;20203;-61
2021/03/29 04:25:26;;;;;;;77.03;32.90;;;;;;;4.40;84.17;97044.09;4992060;28;20720;-61
2021/03/29 04:27:53;;;;;;;88.40;39.17;;;;;;;4.48;82.90;97049.75;4992034;28;20717;-61
2021/03/29 04:30:21;;;;;;;176.73;68.17;;;;;;;4.50;82.31;97059.81;4992073;28;20202;-61
2021/03/29 04:32:53;;;;;;;84.07;36.03;;;;;;;4.53;82.64;97070.47;4991918;28;20633;-61
2021/03/29 04:35:23;;;;;;;64.60;30.63;;;;;;;4.42;82.70;97062.69;4992118;28;20632;-62
2021/03/29 04:37:51;;;;;;;65.13;27.57;;;;;;;4.48;83.13;97074.69;4991916;28;20199;-63
2021/03/29 04:40:21;;;;;;;102.90;42.03;;;;;;;4.49;82.55;97073.69;4991887;28;20693;-62
2021/03/29 04:42:48;;;;;;;85.20;35.30;;;;;;;4.45;83.44;97082.84;5008404;28;20335;-60
2021/03/29 04:45:16;;;;;;;67.37;31.53;;;;;;;4.23;84.93;97085.81;5010927;28;20226;-61
2021/03/29 04:47:43;;;;;;;52.40;23.43;;;;;;;4.29;83.61;97089.34;5010991;28;20198;-62
2021/03/29 04:50:13;;;;;;;25.13;10.90;;;;;;;4.31;83.64;97097.63;5011032;28;20244;-60
2021/03/29 04:52:40;;;;;;;20.60;7.97;;;;;;;4.29;83.46;97099.63;5010919;28;20195;-61
2021/03/29 04:55:10;;;;;;;28.50;12.20;;;;;;;4.28;83.63;97092.94;5010964;28;20237;-61
2021/03/29 04:57:38;;;;;;;28.80;11.43;;;;;;;4.23;85.04;97097.94;5010684;28;20194;-60
2021/03/29 05:00:07;;;;;;;17.87;8.37;;;;;;;4.22;83.84;97099.72;5010938;28;20198;-60
2021/03/29 05:02:34;;;;;;;15.40;7.57;;;;;;;4.29;83.73;97100.41;5010841;28;20583;-60
2021/03/29 05:05:01;;;;;;;22.43;9.77;;;;;;;4.35;84.35;97101.34;5010408;28;20240;-60
2021/03/29 05:07:31;;;;;;;19.03;8.17;;;;;;;4.39;84.64;97104.28;5010502;28;20296;-62
2021/03/29 05:10:01;;;;;;;12.60;5.90;;;;;;;4.51;84.43;97103.38;5010698;28;20206;-61
2021/03/29 05:12:28;;;;;;;10.00;6.13;;;;;;;4.46;84.34;97105.00;5010522;28;20194;-61
2021/03/29 05:14:55;;;;;;;15.00;6.37;;;;;;;4.50;84.30;97106.16;5010710;28;20644;-61
2021/03/29 05:17:26;;;;;;;15.60;6.90;;;;;;;4.60;84.51;97096.13;5010831;28;20203;-62
2021/03/29 05:19:53;;;;;;;16.33;6.83;;;;;;;4.67;84.04;97096.84;5010460;28;20727;-62
2021/03/29 05:22:20;;;;;;;18.87;8.10;;;;;;;4.85;83.81;97096.81;5010551;28;20205;-63
2021/03/29 05:24:48;;;;;;;25.73;9.37;;;;;;;4.90;84.32;97096.97;5010279;28;20230;-61
2021/03/29 05:27:15;;;;;;;32.60;13.13;;;;;;;5.00;85.57;97089.50;5010323;28;20259;-61
2021/03/29 05:29:42;;;;;;;29.80;12.63;;;;;;;5.59;86.48;97096.38;5009841;28;20195;-62
2021/03/29 05:32:19;;;;;;;30.23;11.73;;;;;;;6.32;83.13;97100.38;5010167;28;20241;-61
2021/03/29 05:34:49;;;;;;;24.47;14.03;;;;;;;7.17;78.30;97103.84;5010562;28;20230;-61
2021/03/29 05:37:17;;;;;;;20.30;13.47;;;;;;;7.99;71.96;97104.16;5010269;28;20190;-62
2021/03/29 05:39:46;;;;;;;26.70;16.47;;;;;;;8.67;69.07;97100.44;5010506;28;20209;-62
2021/03/29 05:42:14;;;;;;;26.57;14.33;;;;;;;9.22;65.64;97108.03;5009831;28;20226;-61
2021/03/29 05:44:41;;;;;;;25.53;14.27;;;;;;;9.70;65.52;97112.38;5009542;28;20296;-61
2021/03/29 05:47:09;;;;;;;39.60;18.67;;;;;;;9.91;64.40;97108.91;5009852;28;20202;-62
2021/03/29 05:49:37;;;;;;;32.50;18.30;;;;;;;9.93;62.74;97106.06;5010013;28;20216;-64
2021/03/29 05:52:05;;;;;;;26.17;15.93;;;;;;;9.48;62.32;97104.66;5009896;28;20285;-62
2021/03/29 05:54:32;;;;;;;33.03;13.63;;;;;;;9.09;64.74;97108.44;5009858;28;20285;-61
2021/03/29 05:56:59;;;;;;;34.60;17.90;;;;;;;9.11;65.17;97106.38;5009922;28;20226;-61
2021/03/29 05:59:34;;;;;;;26.03;13.80;;;;;;;9.01;67.35;97104.47;5010092;28;20217;-62
2021/03/29 06:02:01;;;;;;;23.17;13.67;;;;;;;8.46;69.49;97102.00;5010533;28;20211;-61
2021/03/29 06:04:42;;;;;;;25.83;13.10;;;;;;;8.59;69.64;97100.84;5009899;28;20262;-62
2021/03/29 06:07:14;;;;;;;20.73;11.93;;;;;;;8.22;70.91;97103.97;5010111;28;20202;-62
2021/03/29 06:09:41;;;;;;;18.40;12.60;;;;;;;8.27;71.33;97112.84;5010234;28;20256;-62
2021/03/29 06:12:09;;;;;;;22.93;12.10;;;;;;;8.40;70.36;97108.13;5009785;28;20313;-62
2021/03/29 06:14:37;;;;;;;19.50;12.30;;;;;;;8.68;68.33;97109.78;5009677;28;20684;-61
2021/03/29 06:17:07;;;;;;;20.23;11.03;;;;;;;8.80;68.15;97107.06;5009667;28;20218;-62
2021/03/29 06:19:45;;;;;;;21.80;11.07;;;;;;;8.67;69.08;97110.03;5008071;28;20264;-61
2021/03/29 06:22:15;;;;;;;19.40;11.53;;;;;;;8.61;69.76;97111.78;5009941;28;20260;-62
2021/03/29 06:25:06;;;;;;;21.63;11.70;;;;;;;8.73;69.91;97115.03;5009513;28;20234;-61
2021/03/29 06:27:40;;;;;;;24.93;11.53;;;;;;;8.86;69.18;97111.28;5009768;28;20226;-62
2021/03/29 06:30:26;;;;;;;20.03;10.77;;;;;;;8.93;67.77;97114.47;5009704;28;20281;-62
2021/03/29 06:33:09;;;;;;;21.13;11.40;;;;;;;8.80;68.17;97114.84;5009608;28;20202;-61
2021/03/29 06:35:39;;;;;;;20.63;11.20;;;;;;;8.76;68.06;97111.97;5009423;28;20736;-61
2021/03/29 06:38:16;;;;;;;19.10;10.77;;;;;;;8.75;67.06;97114.78;5009749;28;20209;-62
2021/03/29 06:40:45;;;;;;;17.33;10.27;;;;;;;8.78;66.40;97111.69;5009673;28;20256;-59
2021/03/29 06:43:24;;;;;;;19.37;11.47;;;;;;;9.08;65.81;97114.63;5009698;28;20260;-61
2021/03/29 06:45:55;;;;;;;27.77;14.70;;;;;;;9.56;64.62;97111.25;5009348;28;20679;-63
2021/03/29 06:48:27;;;;;;;26.27;13.53;;;;;;;9.86;64.60;97116.66;5009795;28;20207;-63
2021/03/29 06:51:05;;;;;;;23.87;13.07;;;;;;;10.06;63.03;97110.81;5009479;28;20201;-61
2021/03/29 06:53:32;;;;;;;20.90;13.07;;;;;;;10.01;62.90;97118.59;5009744;28;20293;-62
2021/03/29 06:56:19;;;;;;;15.07;9.20;;;;;;;10.43;61.46;97115.25;5011793;28;20198;-63
2021/03/29 06:58:46;;;;;;;13.40;7.60;;;;;;;10.43;58.23;97125.63;5013173;28;20682;-62
2021/03/29 07:01:17;;;;;;;11.50;7.17;;;;;;;10.53;60.22;97125.69;5012922;28;20195;-62
2021/03/29 07:03:45;;;;;;;12.33;6.07;;;;;;;10.47;57.29;97126.69;5013333;28;20236;-62
2021/03/29 07:06:15;;;;;;;9.43;5.43;;;;;;;10.71;57.48;97127.84;5012936;28;20260;-61
2021/03/29 07:08:44;;;;;;;9.63;5.40;;;;;;;11.05;57.50;97129.06;5012996;28;20198;-62
2021/03/29 07:11:13;;;;;;;7.70;4.80;;;;;;;10.69;53.96;97129.94;5012771;28;20202;-62
2021/03/29 07:13:44;;;;;;;7.60;4.93;;;;;;;10.70;53.39;97121.91;5013103;28;20227;-62
2021/03/29 07:16:13;;;;;;;8.77;4.93;;;;;;;10.64;54.91;97128.09;5012709;28;20666;-62
2021/03/29 07:18:43;;;;;;;11.00;4.47;;;;;;;10.67;53.34;97134.59;5013118;28;20209;-62
2021/03/29 07:21:14;;;;;;;7.93;5.00;;;;;;;10.74;52.86;97129.97;5012480;28;20201;-62
2021/03/29 07:23:41;;;;;;;7.60;4.93;;;;;;;10.80;53.54;97126.34;5012585;28;20772;-62
2021/03/29 07:26:31;;;;;;;10.73;5.30;;;;;;;11.02;51.37;97129.53;5012673;28;20317;-62
2021/03/29 07:29:15;;;;;;;10.00;4.57;;;;;;;11.44;49.56;97128.63;5012472;28;20701;-62
2021/03/29 07:31:43;;;;;;;10.17;4.20;;;;;;;11.62;50.01;97128.91;5012493;28;20666;-62
2021/03/29 07:34:12;;;;;;;6.33;3.63;;;;;;;11.90;50.79;97119.84;5012943;28;20238;-61
2021/03/29 07:36:43;;;;;;;16.70;8.53;;;;;;;12.07;49.31;97122.94;5012509;28;20198;-62
2021/03/29 07:39:11;;;;;;;15.00;4.50;;;;;;;12.24;50.13;97121.88;5012214;28;20198;-63
2021/03/29 07:41:38;;;;;;;8.53;4.00;;;;;;;12.58;49.31;97117.63;5011981;28;20313;-61
2021/03/29 07:44:25;;;;;;;6.67;3.77;;;;;;;12.42;48.06;97122.09;5012158;28;20334;-61
2021/03/29 07:46:58;;;;;;;8.27;3.57;;;;;;;12.50;46.18;97107.75;5007664;28;20229;-62
2021/03/29 07:49:47;;;;;;;10.27;4.40;;;;;;;12.68;48.56;97109.78;5012172;28;20226;-61
2021/03/29 07:52:30;;;;;;;6.83;4.00;;;;;;;12.40;48.33;97108.53;5011952;28;20198;-62
2021/03/29 07:54:59;;;;;;;9.23;3.67;;;;;;;12.59;47.15;97100.94;5012018;28;20195;-61
2021/03/29 07:58:04;;;;;;;6.20;3.57;;;;;;;12.74;46.83;97102.72;5011897;28;20241;-62
2021/03/29 08:00:49;;;;;;;8.37;4.93;;;;;;;12.59;48.09;97102.78;5011769;28;20627;-61
2021/03/29 08:03:38;;;;;;;6.50;3.63;;;;;;;12.43;46.79;97100.19;5011660;28;20198;-61
2021/03/29 08:06:07;;;;;;;6.57;3.47;;;;;;;12.33;47.32;97108.06;5011439;28;20262;-61
2021/03/29 08:08:53;;;;;;;7.50;3.90;;;;;;;12.82;47.14;97096.94;5011466;28;20581;-61
2021/03/29 08:11:22;;;;;;;5.27;3.07;;;;;;;12.90;47.56;97097.16;5011769;28;20198;-61
2021/03/29 08:13:53;;;;;;;7.23;3.20;;;;;;;12.91;46.25;97098.72;5011573;28;20195;-61
2021/03/29 08:16:30;;;;;;;8.70;4.00;;;;;;;13.23;44.65;97100.94;5011934;28;20203;-61
2021/03/29 08:19:10;;;;;;;7.57;3.60;;;;;;;13.44;42.82;97095.59;5011411;28;20205;-62
2021/03/29 08:21:46;;;;;;;9.67;3.70;;;;;;;13.29;42.80;97093.84;5011882;28;20285;-61
2021/03/29 08:24:26;;;;;;;8.63;3.20;;;;;;;12.99;42.75;97091.38;5011470;28;20256;-61
2021/03/29 08:26:56;;;;;;;7.47;3.13;;;;;;;12.95;41.93;97094.50;5011827;28;20226;-61
2021/03/29 08:29:31;;;;;;;15.30;3.80;;;;;;;13.18;40.75;97089.75;5011466;28;20226;-61
2021/03/29 08:32:15;;;;;;;5.23;3.27;;;;;;;13.15;42.31;97087.69;5011502;28;20319;-60
2021/03/29 08:34:52;;;;;;;6.87;3.30;;;;;;;13.72;44.24;97085.19;5011331;28;20680;-61
2021/03/29 08:37:24;;;;;;;6.23;3.60;;;;;;;13.75;43.12;97091.69;5011479;28;20198;-60
2021/03/29 08:39:53;;;;;;;6.17;3.13;;;;;;;13.88;42.36;97085.84;5011142;28;20201;-60
2021/03/29 08:42:22;;;;;;;6.13;3.20;;;;;;;13.62;40.59;97082.66;5010826;28;20245;-61
2021/03/29 08:44:51;;;;;;;7.97;3.93;;;;;;;13.67;42.95;97087.84;5010880;28;20325;-60
2021/03/29 08:47:20;;;;;;;9.70;4.30;;;;;;;14.08;41.64;97090.09;5011347;28;20699;-60
2021/03/29 08:49:51;;;;;;;7.77;3.20;;;;;;;14.07;41.39;97088.53;5011091;28;20285;-61
2021/03/29 08:52:18;;;;;;;20.40;4.13;;;;;;;13.84;41.77;97082.22;5010953;28;20201;-60
2021/03/29 08:54:54;;;;;;;8.17;3.07;;;;;;;14.22;39.24;97080.56;5011004;28;20198;-61
2021/03/29 08:57:27;;;;;;;6.53;2.90;;;;;;;14.02;38.62;97081.53;5010827;28;20229;-61
2021/03/29 08:59:58;;;;;;;6.03;3.03;;;;;;;13.74;40.43;97075.25;5010775;28;20205;-60
2021/03/29 09:02:26;;;;;;;5.77;3.20;;;;;;;14.09;39.79;97079.38;5010759;28;20199;-61
2021/03/29 09:04:58;;;;;;;5.17;3.10;;;;;;;13.97;39.76;97070.34;5010585;28;20770;-61
2021/03/29 09:07:30;;;;;;;6.30;2.87;;;;;;;14.09;40.22;97074.16;5010764;28;20215;-61
2021/03/29 09:09:59;;;;;;;8.03;3.30;;;;;;;14.38;40.34;97070.75;5010541;28;20285;-61
2021/03/29 09:12:31;;;;;;;6.23;3.00;;;;;;;14.47;39.11;97069.06;5010961;28;20326;-61
2021/03/29 09:14:58;;;;;;;7.90;3.20;;;;;;;14.41;38.66;97073.56;5010460;28;20571;-61
2021/03/29 09:17:31;;;;;;;4.33;2.70;;;;;;;14.16;37.82;97060.72;5010527;28;20657;-62
2021/03/29 09:19:58;;;;;;;17.50;4.60;;;;;;;14.01;39.49;97060.88;5009701;28;20296;-62
2021/03/29 09:22:30;;;;;;;4.90;3.07;;;;;;;14.08;40.04;97059.53;5010396;28;20198;-61
2021/03/29 09:24:58;;;;;;;16.23;4.70;;;;;;;14.13;40.71;97051.63;5010688;28;20242;-59
2021/03/29 09:27:32;;;;;;;9.47;3.77;;;;;;;13.93;41.79;97054.44;5010439;28;20234;-62
2021/03/29 09:30:00;;;;;;;7.37;3.60;;;;;;;14.13;39.96;97056.06;5010340;28;20260;-61
2021/03/29 09:32:30;;;;;;;14.43;10.00;;;;;;;13.97;39.95;97055.44;5010164;28;20194;-61
2021/03/29 09:34:57;;;;;;;6.77;3.80;;;;;;;14.25;40.18;97051.22;5010119;28;20614;-62
2021/03/29 09:37:26;;;;;;;8.00;3.80;;;;;;;14.59;39.65;97048.53;5010231;28;20213;-61
2021/03/29 09:39:58;;;;;;;5.67;2.70;;;;;;;15.19;40.72;97052.19;5010306;28;20286;-62
2021/03/29 09:42:42;;;;;;;5.90;2.50;;;;;;;14.96;38.25;97045.16;5010039;28;20237;-61
2021/03/29 09:45:12;;;;;;;5.43;2.60;;;;;;;14.84;36.74;97039.59;5010047;28;20229;-61
2021/03/29 09:47:42;;;;;;;31.77;12.00;;;;;;;15.12;37.00;97050.97;5010635;28;20221;-61
2021/03/29 09:50:11;;;;;;;6.93;3.30;;;;;;;15.37;40.19;97038.28;5010198;28;20205;-60
2021/03/29 09:52:42;;;;;;;41.93;16.20;;;;;;;15.35;37.05;97045.66;5010014;28;20233;-61
2021/03/29 09:55:20;;;;;;;544.40;241.10;;;;;;;15.20;38.29;97038.00;5009953;28;20209;-60
2021/03/29 09:57:54;;;;;;;8.03;3.53;;;;;;;15.09;36.19;97041.88;5008895;28;20202;-62
2021/03/29 10:00:23;;;;;;;9.77;4.80;;;;;;;14.90;36.95;97036.59;5009648;28;20198;-61
2021/03/29 10:03:05;;;;;;;35.87;14.47;;;;;;;14.80;39.95;97033.34;5010174;28;20210;-62
2021/03/29 10:05:35;;;;;;;14.23;5.70;;;;;;;14.97;39.75;97028.41;5009748;28;20226;-61
2021/03/29 10:08:13;;;;;;;18.13;6.63;;;;;;;14.38;38.74;97027.06;5010003;28;20285;-61
2021/03/29 10:10:49;;;;;;;21.73;9.00;;;;;;;14.58;39.08;97029.44;5010278;28;20205;-60
2021/03/29 10:13:18;;;;;;;11.93;4.67;;;;;;;14.68;38.32;97018.06;5009883;28;20681;-61
2021/03/29 10:18:31;;;;;;;3.70;2.33;;;;;;;14.72;38.86;97021.66;5009598;28;20241;-62
2021/03/29 10:21:04;;;;;;;3.70;2.53;;;;;;;14.91;36.95;97013.81;5010226;28;20642;-61
2021/03/29 10:23:40;;;;;;;7.27;3.30;;;;;;;14.78;38.43;97011.91;5009842;28;20207;-61
2021/03/29 10:26:28;;;;;;;5.63;2.63;;;;;;;14.27;37.99;97003.88;5009743;28;20806;-61
2021/03/29 10:29:00;;;;;;;4.37;1.93;;;;;;;14.40;37.03;97004.00;5009849;28;20215;-62
2021/03/29 10:31:29;;;;;;;7.67;2.33;;;;;;;14.50;38.47;97000.50;5013220;28;20190;-61
2021/03/29 10:33:57;;;;;;;5.47;2.17;;;;;;;14.98;35.31;97003.78;5013497;28;20217;-60
2021/03/29 10:36:25;;;;;;;3.23;2.20;;;;;;;14.98;36.34;96993.31;5013654;28;20199;-61
2021/03/29 10:38:55;;;;;;;3.90;2.20;;;;;;;14.69;36.19;96990.06;5013428;28;20213;-62
2021/03/29 10:41:24;;;;;;;4.37;2.10;;;;;;;14.57;36.52;96980.00;5013051;28;20313;-61
2021/03/29 10:43:52;;;;;;;4.13;2.20;;;;;;;15.29;37.53;96978.69;5013596;28;20237;-61
2021/03/29 10:46:18;;;;;;;2.77;2.00;;;;;;;15.73;37.94;96967.00;5013443;28;20323;-63
2021/03/29 10:48:45;;;;;;;3.37;1.90;;;;;;;15.86;34.39;96963.59;5013496;28;20236;-62
2021/03/29 10:51:12;;;;;;;4.37;1.90;;;;;;;16.04;34.48;96962.72;5013593;28;20245;-61
2021/03/29 10:53:39;;;;;;;4.73;2.00;;;;;;;15.80;33.19;96956.88;5013127;28;20246;-60
2021/03/29 10:56:07;;;;;;;4.20;2.20;;;;;;;15.21;35.71;96955.00;5013209;28;20206;-61
2021/03/29 10:58:35;;;;;;;5.17;1.97;;;;;;;14.94;34.89;96959.06;5013146;28;20257;-61
2021/03/29 11:01:03;;;;;;;4.80;2.30;;;;;;;14.69;35.68;96963.91;5013503;28;20293;-61
2021/03/29 11:03:30;;;;;;;16.13;4.10;;;;;;;14.74;35.11;96958.59;5013099;28;20241;-62
2021/03/29 11:05:57;;;;;;;5.37;1.87;;;;;;;14.70;34.66;96950.50;5012899;28;20230;-62
2021/03/29 11:08:23;;;;;;;5.63;2.00;;;;;;;14.91;35.22;96945.75;5012813;28;20191;-61
2021/03/29 11:10:51;;;;;;;5.60;2.50;;;;;;;14.66;34.73;96946.91;5012863;28;20282;-60
2021/03/29 11:13:17;;;;;;;5.83;2.60;;;;;;;14.58;34.85;96942.31;5013383;28;20190;-61
2021/03/29 11:15:46;;;;;;;5.93;2.20;;;;;;;14.54;35.20;96936.88;5012923;28;20194;-61
2021/03/29 11:18:13;;;;;;;6.60;2.20;;;;;;;14.55;34.79;96933.19;5012836;28;20273;-60
2021/03/29 11:20:41;;;;;;;2.83;1.83;;;;;;;14.43;34.98;96929.44;5012303;28;20248;-59
2021/03/29 11:23:09;;;;;;;5.87;2.33;;;;;;;14.44;37.52;96918.72;5012579;28;20652;-60
2021/03/29 11:25:36;;;;;;;4.47;2.57;;;;;;;14.55;35.81;96922.72;5012400;28;20321;-61
2021/03/29 11:28:04;;;;;;;11.27;5.63;;;;;;;14.49;35.77;96917.84;5012907;28;20685;-61
2021/03/29 11:30:31;;;;;;;4.43;2.30;;;;;;;14.44;36.44;96918.72;5012332;28;20194;-59
2021/03/29 11:32:59;;;;;;;3.70;1.80;;;;;;;14.89;35.36;96898.94;5012392;28;20195;-60
2021/03/29 11:35:26;;;;;;;3.97;2.10;;;;;;;14.93;34.70;96899.16;5012554;28;20288;-61
2021/03/29 11:37:53;;;;;;;3.27;1.77;;;;;;;14.97;35.04;96887.81;5012243;28;20550;-61
2021/03/29 11:40:20;;;;;;;5.47;1.87;;;;;;;15.15;34.76;96880.97;5012436;28;20199;-61
2021/03/29 11:42:46;;;;;;;4.97;2.20;;;;;;;15.17;33.67;96876.22;5011669;28;20706;-60
2021/03/29 11:45:14;;;;;;;6.53;1.80;;;;;;;15.31;34.89;96878.88;5012344;28;20317;-62
2021/03/29 11:47:46;;;;;;;3.37;1.90;;;;;;;15.26;33.97;96873.72;5012652;28;20264;-59
2021/03/29 11:50:14;;;;;;;6.83;2.13;;;;;;;15.40;34.62;96872.66;5012693;28;20221;-61